createdAt,value
2023-07-24T00:00:45.816Z,21.26
2023-07-24T00:01:45.804Z,21.24
2023-07-24T00:02:45.854Z,21.26
2023-07-24T00:03:45.841Z,21.26
2023-07-24T00:04:45.777Z,21.24
2023-07-24T00:05:45.757Z,21.24
2023-07-24T00:06:45.745Z,21.29
2023-07-24T00:07:45.738Z,21.27
2023-07-24T00:08:45.731Z,21.20
2023-07-24T00:09:45.720Z,21.24
2023-07-24T00:10:45.707Z,21.24
2023-07-24T00:11:45.692Z,21.36
2023-07-24T00:12:45.704Z,21.33
2023-07-24T00:13:45.673Z,21.37
2023-07-24T00:14:45.674Z,21.39
2023-07-24T00:15:45.651Z,21.40
2023-07-24T00:16:45.680Z,21.36
2023-07-24T00:17:45.686Z,21.35
2023-07-24T00:18:45.628Z,21.43
2023-07-24T00:19:45.607Z,21.36
2023-07-24T00:20:45.601Z,21.35
2023-07-24T00:21:45.589Z,21.36
2023-07-24T00:22:45.581Z,21.43
2023-07-24T00:23:45.597Z,21.37
2023-07-24T00:24:45.580Z,21.43
2023-07-24T00:25:45.544Z,21.36
2023-07-24T00:26:45.537Z,21.36
2023-07-24T00:27:45.522Z,21.35
2023-07-24T00:28:45.526Z,21.40
2023-07-24T00:29:45.504Z,21.37
2023-07-24T00:30:45.516Z,21.26
2023-07-24T00:31:45.482Z,21.18
2023-07-24T00:32:45.601Z,21.27
2023-07-24T00:33:45.461Z,21.14
2023-07-24T00:34:45.450Z,21.12
2023-07-24T00:35:45.459Z,21.11
2023-07-24T00:36:45.445Z,21.12
2023-07-24T00:37:45.423Z,20.97
2023-07-24T00:38:45.416Z,21.05
2023-07-24T00:39:45.402Z,20.99
2023-07-24T00:40:45.390Z,20.96
2023-07-24T00:41:45.376Z,20.90
2023-07-24T00:42:45.368Z,20.95
2023-07-24T00:43:45.356Z,20.84
2023-07-24T00:44:45.356Z,20.84
2023-07-24T00:45:45.360Z,20.74
2023-07-24T00:46:45.377Z,20.65
2023-07-24T00:47:45.347Z,20.63
2023-07-24T00:48:45.306Z,20.57
2023-07-24T00:49:45.292Z,20.57
2023-07-24T00:50:45.287Z,20.50
2023-07-24T00:51:45.273Z,20.43
2023-07-24T00:52:45.270Z,20.40
2023-07-24T00:53:45.267Z,20.33
2023-07-24T00:54:45.242Z,20.37
2023-07-24T00:55:45.227Z,20.31
2023-07-24T00:56:45.224Z,20.33
2023-07-24T00:57:45.206Z,20.29
2023-07-24T00:58:45.220Z,20.29
2023-07-24T00:59:45.184Z,20.29
2023-07-24T01:00:45.232Z,20.39
2023-07-24T01:01:45.164Z,20.34
2023-07-24T01:02:45.203Z,20.44
2023-07-24T01:03:45.141Z,20.43
2023-07-24T01:04:45.139Z,20.44
2023-07-24T01:05:45.120Z,20.53
2023-07-24T01:06:45.628Z,20.71
2023-07-24T01:07:45.733Z,20.71
2023-07-24T01:08:45.091Z,20.77
2023-07-24T01:09:45.083Z,20.84
2023-07-24T01:10:45.074Z,20.89
2023-07-24T01:11:45.058Z,20.81
2023-07-24T01:12:45.057Z,20.92
2023-07-24T01:13:45.036Z,20.96
2023-07-24T01:14:45.039Z,20.99
2023-07-24T01:15:45.016Z,21.11
2023-07-24T01:16:45.052Z,21.03
2023-07-24T01:17:45.031Z,21.05
2023-07-24T01:18:44.990Z,21.15
2023-07-24T01:19:44.971Z,21.11
2023-07-24T01:20:44.960Z,21.05
2023-07-24T01:21:44.957Z,21.12
2023-07-24T01:22:44.942Z,21.08
2023-07-24T01:23:44.933Z,21.10
2023-07-24T01:24:44.996Z,21.06
2023-07-24T01:25:44.907Z,21.06
2023-07-24T01:26:44.903Z,21.12
2023-07-24T01:27:44.903Z,21.11
2023-07-24T01:28:44.880Z,21.00
2023-07-24T01:29:44.864Z,21.03
2023-07-24T01:30:44.861Z,20.97
2023-07-24T01:31:44.862Z,21.08
2023-07-24T01:32:44.899Z,21.10
2023-07-24T01:33:44.828Z,21.08
2023-07-24T01:34:44.821Z,21.06
2023-07-24T01:35:44.815Z,20.97
2023-07-24T01:36:44.793Z,20.97
2023-07-24T01:37:44.787Z,21.05
2023-07-24T01:38:44.774Z,20.95
2023-07-24T01:39:44.778Z,21.06
2023-07-24T01:40:44.750Z,21.03
2023-07-24T01:41:44.736Z,21.02
2023-07-24T01:42:44.728Z,21.00
2023-07-24T01:43:44.719Z,21.00
2023-07-24T01:44:44.716Z,20.96
2023-07-24T01:45:44.699Z,20.99
2023-07-24T01:46:44.764Z,20.99
2023-07-24T01:47:44.727Z,20.84
2023-07-24T01:48:44.680Z,20.82
2023-07-24T01:49:44.647Z,20.85
2023-07-24T01:50:44.648Z,20.89
2023-07-24T01:51:44.641Z,20.85
2023-07-24T01:52:44.676Z,20.81
2023-07-24T01:53:44.615Z,20.87
2023-07-24T01:54:44.604Z,20.84
2023-07-24T01:55:44.603Z,20.87
2023-07-24T01:56:44.587Z,20.75
2023-07-24T01:57:44.587Z,20.82
2023-07-24T01:58:44.566Z,20.67
2023-07-24T01:59:44.549Z,20.75
2023-07-24T02:00:44.536Z,20.84
2023-07-24T02:01:44.544Z,20.80
2023-07-24T02:02:44.542Z,20.66
2023-07-24T02:03:44.531Z,20.77
2023-07-24T02:04:44.498Z,20.75
2023-07-24T02:05:44.488Z,20.72
2023-07-24T02:06:44.497Z,20.71
2023-07-24T02:07:44.460Z,20.72
2023-07-24T02:08:44.449Z,20.74
2023-07-24T02:09:44.436Z,20.75
2023-07-24T02:10:44.428Z,20.72
2023-07-24T02:11:44.420Z,20.71
2023-07-24T02:12:44.402Z,20.75
2023-07-24T02:13:44.391Z,20.74
2023-07-24T02:14:44.393Z,20.78
2023-07-24T02:15:44.377Z,20.78
2023-07-24T02:16:44.419Z,20.84
2023-07-24T02:17:44.409Z,20.85
2023-07-24T02:18:44.348Z,20.84
2023-07-24T02:19:44.347Z,20.87
2023-07-24T02:20:44.315Z,20.87
2023-07-24T02:21:44.315Z,20.85
2023-07-24T02:22:44.305Z,20.85
2023-07-24T02:23:44.284Z,20.85
2023-07-24T02:24:44.329Z,20.84
2023-07-24T02:25:44.259Z,20.87
2023-07-24T02:26:44.251Z,20.78
2023-07-24T02:27:44.244Z,20.81
2023-07-24T02:28:44.229Z,20.81
2023-07-24T02:29:44.219Z,20.92
2023-07-24T02:30:44.213Z,20.87
2023-07-24T02:31:44.268Z,20.85
2023-07-24T02:32:44.236Z,20.85
2023-07-24T02:33:44.174Z,20.99
2023-07-24T02:34:44.170Z,20.99
2023-07-24T02:35:44.153Z,21.03
2023-07-24T02:36:44.148Z,21.05
2023-07-24T02:37:44.153Z,21.10
2023-07-24T02:38:44.129Z,21.11
2023-07-24T02:39:44.117Z,21.11
2023-07-24T02:40:44.100Z,21.12
2023-07-24T02:41:44.087Z,21.14
2023-07-24T02:42:44.093Z,21.08
2023-07-24T02:43:44.068Z,21.11
2023-07-24T02:44:44.067Z,21.02
2023-07-24T02:45:44.060Z,21.03
2023-07-24T02:46:44.033Z,21.05
2023-07-24T02:47:44.072Z,20.97
2023-07-24T02:48:44.021Z,20.84
2023-07-24T02:49:44.008Z,20.87
2023-07-24T02:50:43.993Z,20.87
2023-07-24T02:51:43.985Z,20.81
2023-07-24T02:52:43.979Z,20.81
2023-07-24T02:53:43.963Z,20.72
2023-07-24T02:54:43.957Z,20.72
2023-07-24T02:55:43.940Z,20.66
2023-07-24T02:56:43.936Z,20.57
2023-07-24T02:57:43.915Z,20.56
2023-07-24T02:58:43.920Z,20.53
2023-07-24T02:59:43.898Z,20.48
2023-07-24T03:00:43.901Z,20.48
2023-07-24T03:01:43.880Z,20.43
2023-07-24T03:02:43.946Z,20.39
2023-07-24T03:03:43.887Z,20.37
2023-07-24T03:04:43.854Z,20.26
2023-07-24T03:05:43.837Z,20.29
2023-07-24T03:06:43.832Z,20.25
2023-07-24T03:07:43.810Z,20.28
2023-07-24T03:08:43.806Z,20.25
2023-07-24T03:09:43.818Z,20.24
2023-07-24T03:10:43.825Z,20.18
2023-07-24T03:11:43.764Z,20.19
2023-07-24T03:12:43.761Z,20.18
2023-07-24T03:13:43.738Z,20.19
2023-07-24T03:14:43.728Z,20.21
2023-07-24T03:15:43.734Z,20.17
2023-07-24T03:16:43.715Z,20.21
2023-07-24T03:17:43.730Z,20.18
2023-07-24T03:18:43.692Z,20.15
2023-07-24T03:19:43.688Z,20.19
2023-07-24T03:20:43.676Z,20.15
2023-07-24T03:21:43.654Z,20.17
2023-07-24T03:22:43.640Z,20.10
2023-07-24T03:23:43.633Z,20.09
2023-07-24T03:24:43.648Z,20.09
2023-07-24T03:25:43.618Z,20.14
2023-07-24T03:26:43.603Z,20.03
2023-07-24T03:27:43.586Z,20.03
2023-07-24T03:28:43.579Z,20.03
2023-07-24T03:29:43.567Z,19.94
2023-07-24T03:30:43.578Z,19.94
2023-07-24T03:31:43.578Z,19.97
2023-07-24T03:32:43.590Z,20.00
2023-07-24T03:33:43.517Z,19.96
2023-07-24T03:34:43.511Z,19.97
2023-07-24T03:35:43.513Z,19.92
2023-07-24T03:36:43.482Z,19.92
2023-07-24T03:37:43.482Z,19.92
2023-07-24T03:38:43.480Z,19.94
2023-07-24T03:39:43.459Z,19.99
2023-07-24T03:40:43.441Z,19.89
2023-07-24T03:41:43.430Z,19.92
2023-07-24T03:42:43.421Z,19.94
2023-07-24T03:43:43.403Z,19.89
2023-07-24T03:44:43.397Z,19.89
2023-07-24T03:45:43.393Z,19.96
2023-07-24T03:46:43.422Z,19.96
2023-07-24T03:47:43.381Z,19.91
2023-07-24T03:48:43.358Z,19.92
2023-07-24T03:49:43.340Z,19.94
2023-07-24T03:50:43.332Z,20.03
2023-07-24T03:51:43.410Z,20.04
2023-07-24T03:52:43.306Z,20.07
2023-07-24T03:53:43.305Z,20.04
2023-07-24T03:54:43.284Z,20.17
2023-07-24T03:55:43.295Z,20.11
2023-07-24T03:56:43.261Z,20.19
2023-07-24T03:57:43.248Z,20.18
2023-07-24T03:58:43.242Z,20.26
2023-07-24T03:59:43.239Z,20.37
2023-07-24T04:00:43.251Z,20.31
2023-07-24T04:01:43.221Z,20.44
2023-07-24T04:02:43.251Z,20.44
2023-07-24T04:03:43.190Z,20.50
2023-07-24T04:04:43.173Z,20.52
2023-07-24T04:05:43.156Z,20.59
2023-07-24T04:06:43.154Z,20.59
2023-07-24T04:07:43.142Z,20.56
2023-07-24T04:08:43.239Z,20.59
2023-07-24T04:09:43.245Z,20.63
2023-07-24T04:10:43.211Z,20.59
2023-07-24T04:11:43.199Z,20.69
2023-07-24T04:12:43.199Z,20.74
2023-07-24T04:13:43.074Z,20.85
2023-07-24T04:14:43.163Z,20.75
2023-07-24T04:15:43.053Z,20.87
2023-07-24T04:16:43.111Z,20.89
2023-07-24T04:17:43.092Z,20.81
2023-07-24T04:18:43.019Z,20.93
2023-07-24T04:19:43.016Z,21.02
2023-07-24T04:20:42.994Z,20.95
2023-07-24T04:21:42.986Z,21.08
2023-07-24T04:22:42.978Z,21.14
2023-07-24T04:23:42.964Z,21.14
2023-07-24T04:24:42.988Z,21.18
2023-07-24T04:25:42.964Z,21.26
2023-07-24T04:26:42.938Z,21.27
2023-07-24T04:27:42.999Z,21.22
2023-07-24T04:28:42.978Z,21.33
2023-07-24T04:29:42.938Z,21.32
2023-07-24T04:30:42.923Z,21.36
2023-07-24T04:31:42.904Z,21.40
2023-07-24T04:32:42.913Z,21.43
2023-07-24T04:33:42.857Z,21.51
2023-07-24T04:34:42.842Z,21.52
2023-07-24T04:35:42.844Z,21.58
2023-07-24T04:36:42.828Z,21.58
2023-07-24T04:37:42.810Z,21.50
2023-07-24T04:38:42.808Z,21.48
2023-07-24T04:39:43.673Z,21.54
2023-07-24T04:40:42.816Z,21.57
2023-07-24T04:41:42.773Z,21.54
2023-07-24T04:42:42.765Z,21.61
2023-07-24T04:43:42.761Z,21.55
2023-07-24T04:44:42.745Z,21.50
2023-07-24T04:45:42.733Z,21.63
2023-07-24T04:46:42.779Z,21.63
2023-07-24T04:47:42.718Z,21.69
2023-07-24T04:48:42.733Z,21.65
2023-07-24T04:49:42.711Z,21.69
2023-07-24T04:50:42.672Z,21.69
2023-07-24T04:51:42.663Z,21.76
2023-07-24T04:52:42.655Z,21.88
2023-07-24T04:53:42.679Z,21.90
2023-07-24T04:54:42.642Z,22.04
2023-07-24T04:55:42.623Z,22.13
2023-07-24T04:56:42.613Z,22.17
2023-07-24T04:57:42.600Z,22.15
2023-07-24T04:58:42.598Z,22.13
2023-07-24T04:59:44.251Z,22.19
2023-07-24T05:00:42.579Z,22.11
2023-07-24T05:01:42.583Z,22.15
2023-07-24T05:02:42.620Z,22.17
2023-07-24T05:03:42.882Z,22.19
2023-07-24T05:04:42.559Z,22.19
2023-07-24T05:05:45.076Z,22.29
2023-07-24T05:06:42.510Z,22.33
2023-07-24T05:07:42.504Z,22.32
2023-07-24T05:08:43.650Z,22.29
2023-07-24T05:09:42.487Z,22.29
2023-07-24T05:10:42.512Z,22.30
2023-07-24T05:11:42.463Z,22.32
2023-07-24T05:12:42.460Z,22.25
2023-07-24T05:13:42.431Z,22.20
2023-07-24T05:14:42.429Z,22.20
2023-07-24T05:15:42.416Z,22.23
2023-07-24T05:16:42.478Z,22.25
2023-07-24T05:17:42.424Z,22.28
2023-07-24T05:18:42.390Z,22.41
2023-07-24T05:19:42.372Z,22.43
2023-07-24T05:20:42.360Z,22.48
2023-07-24T05:21:42.356Z,22.53
2023-07-24T05:22:42.342Z,22.54
2023-07-24T05:23:42.334Z,22.68
2023-07-24T05:24:42.447Z,22.73
2023-07-24T05:25:42.316Z,22.83
2023-07-24T05:26:42.300Z,22.93
2023-07-24T05:27:44.263Z,23.00
2023-07-24T05:28:42.334Z,22.98
2023-07-24T05:29:42.268Z,23.03
2023-07-24T05:30:42.258Z,23.17
2023-07-24T05:31:42.312Z,23.10
2023-07-24T05:32:42.258Z,23.20
2023-07-24T05:33:42.235Z,23.20
2023-07-24T05:34:43.400Z,23.21
2023-07-24T05:35:42.215Z,23.28
2023-07-24T05:36:42.209Z,23.31
2023-07-24T05:37:42.195Z,23.27
2023-07-24T05:38:42.179Z,23.37
2023-07-24T05:39:42.167Z,23.34
2023-07-24T05:40:42.169Z,23.38
2023-07-24T05:41:42.157Z,23.41
2023-07-24T05:42:42.139Z,23.56
2023-07-24T05:43:42.140Z,23.44
2023-07-24T05:44:42.122Z,23.46
2023-07-24T05:45:42.155Z,23.48
2023-07-24T05:46:42.110Z,23.48
2023-07-24T05:47:42.158Z,23.55
2023-07-24T05:48:42.079Z,23.76
2023-07-24T05:49:42.931Z,23.70
2023-07-24T05:50:42.064Z,23.83
2023-07-24T05:51:42.060Z,23.90
2023-07-24T05:52:42.092Z,23.98
2023-07-24T05:53:42.036Z,24.03
2023-07-24T05:54:42.026Z,24.15
2023-07-24T05:55:42.015Z,24.11
2023-07-24T05:56:42.005Z,24.05
2023-07-24T05:57:42.000Z,24.11
2023-07-24T05:58:42.008Z,24.05
2023-07-24T05:59:41.982Z,24.11
2023-07-24T06:00:41.965Z,24.15
2023-07-24T06:01:42.024Z,24.17
2023-07-24T06:02:42.016Z,24.13
2023-07-24T06:03:41.953Z,24.23
2023-07-24T06:04:42.005Z,24.26
2023-07-24T06:05:41.923Z,24.21
2023-07-24T06:06:42.044Z,24.14
2023-07-24T06:07:41.905Z,24.18
2023-07-24T06:08:41.890Z,24.18
2023-07-24T06:09:41.880Z,24.13
2023-07-24T06:10:41.882Z,24.11
2023-07-24T06:11:41.864Z,24.14
2023-07-24T06:12:41.851Z,24.14
2023-07-24T06:13:41.874Z,24.14
2023-07-24T06:14:41.834Z,24.11
2023-07-24T06:15:41.841Z,23.93
2023-07-24T06:16:41.980Z,23.98
2023-07-24T06:17:41.823Z,23.95
2023-07-24T06:18:41.794Z,23.93
2023-07-24T06:19:41.789Z,23.89
2023-07-24T06:20:41.781Z,23.98
2023-07-24T06:21:41.776Z,23.92
2023-07-24T06:22:41.767Z,24.07
2023-07-24T06:23:41.760Z,24.15
2023-07-24T06:24:41.854Z,24.15
2023-07-24T06:25:41.744Z,24.35
2023-07-24T06:26:41.732Z,24.54
2023-07-24T06:27:41.724Z,24.62
2023-07-24T06:28:41.719Z,24.66
2023-07-24T06:29:41.696Z,24.70
2023-07-24T06:30:41.695Z,24.70
2023-07-24T06:31:41.717Z,24.69
2023-07-24T06:32:41.770Z,24.74
2023-07-24T06:33:41.669Z,24.81
2023-07-24T06:34:41.642Z,24.81
2023-07-24T06:35:41.646Z,24.83
2023-07-24T06:36:41.657Z,24.95
2023-07-24T06:37:41.621Z,24.95
2023-07-24T06:38:41.611Z,25.10
2023-07-24T06:39:41.605Z,25.00
2023-07-24T06:40:41.592Z,24.78
2023-07-24T06:41:41.588Z,24.77
2023-07-24T06:42:41.572Z,24.62
2023-07-24T06:43:41.563Z,24.62
2023-07-24T06:44:41.586Z,24.63
2023-07-24T06:45:41.586Z,24.73
2023-07-24T06:46:41.550Z,24.93
2023-07-24T06:47:41.559Z,24.98
2023-07-24T06:48:41.529Z,25.23
2023-07-24T06:49:41.512Z,25.33
2023-07-24T06:50:41.579Z,25.59
2023-07-24T06:51:41.496Z,25.81
2023-07-24T06:52:41.483Z,26.10
2023-07-24T06:53:41.474Z,26.31
2023-07-24T06:54:41.490Z,26.57
2023-07-24T06:55:41.453Z,26.87
2023-07-24T06:56:41.451Z,27.29
2023-07-24T06:57:41.447Z,27.52
2023-07-24T06:58:41.427Z,27.80
2023-07-24T06:59:41.434Z,28.05
2023-07-24T07:00:41.425Z,28.07
2023-07-24T07:01:41.522Z,27.99
2023-07-24T07:02:41.451Z,27.85
2023-07-24T07:03:41.385Z,27.70
2023-07-24T07:04:41.389Z,27.55
2023-07-24T07:05:41.381Z,27.64
2023-07-24T07:06:41.366Z,27.79
2023-07-24T07:07:41.381Z,28.09
2023-07-24T07:08:41.386Z,28.78
2023-07-24T07:09:41.400Z,29.54
2023-07-24T07:10:41.367Z,31.25
2023-07-24T07:11:41.322Z,33.99
2023-07-24T07:12:41.315Z,36.12
2023-07-24T07:13:41.311Z,37.26
2023-07-24T07:14:41.302Z,36.52
2023-07-24T07:15:41.328Z,35.15
2023-07-24T07:16:41.287Z,35.43
2023-07-24T07:17:41.290Z,34.94
2023-07-24T07:18:41.292Z,36.06
2023-07-24T07:19:41.265Z,34.96
2023-07-24T07:20:41.263Z,35.20
2023-07-24T07:21:41.250Z,35.92
2023-07-24T07:22:41.247Z,38.14
2023-07-24T07:23:41.251Z,40.18
2023-07-24T07:24:41.419Z,39.47
2023-07-24T07:25:41.333Z,39.46
2023-07-24T07:26:41.228Z,38.88
2023-07-24T07:27:41.226Z,39.52
2023-07-24T07:28:41.223Z,39.18
2023-07-24T07:29:41.207Z,39.50
2023-07-24T07:30:42.107Z,42.17
2023-07-24T07:31:41.221Z,43.99
2023-07-24T07:32:41.209Z,45.35
2023-07-24T07:33:41.184Z,46.49
2023-07-24T07:34:41.189Z,47.43
2023-07-24T07:35:41.181Z,47.96
2023-07-24T07:36:41.175Z,48.09
2023-07-24T07:37:41.169Z,48.19
2023-07-24T07:38:41.160Z,48.37
2023-07-24T07:39:41.161Z,48.16
2023-07-24T07:40:41.162Z,47.42
2023-07-24T07:41:41.157Z,47.36
2023-07-24T07:42:42.766Z,46.58
2023-07-24T07:43:41.146Z,45.61
2023-07-24T07:44:41.154Z,43.71
2023-07-24T07:45:41.144Z,42.64
2023-07-24T07:46:41.158Z,41.30
2023-07-24T07:47:41.185Z,40.18
2023-07-24T07:48:41.131Z,39.46
2023-07-24T07:49:41.134Z,39.49
2023-07-24T07:50:41.123Z,39.35
2023-07-24T07:51:41.124Z,39.37
2023-07-24T07:52:41.130Z,39.87
2023-07-24T07:53:41.114Z,40.15
2023-07-24T07:54:41.107Z,39.80
2023-07-24T07:55:41.110Z,39.15
2023-07-24T07:56:41.111Z,39.38
2023-07-24T07:57:41.102Z,38.77
2023-07-24T07:58:41.123Z,38.17
2023-07-24T07:59:41.100Z,37.51
2023-07-24T08:00:41.206Z,37.19
2023-07-24T08:01:41.091Z,36.68
2023-07-24T08:02:41.179Z,36.14
2023-07-24T08:03:41.145Z,35.82
2023-07-24T08:04:41.073Z,35.52
2023-07-24T08:05:41.077Z,35.52
2023-07-24T08:06:41.090Z,35.24
2023-07-24T08:07:41.077Z,35.23
2023-07-24T08:08:41.084Z,35.79
2023-07-24T08:09:41.068Z,36.48
2023-07-24T08:10:41.073Z,37.33
2023-07-24T08:11:41.063Z,37.79
2023-07-24T08:12:41.059Z,38.00
2023-07-24T08:13:41.044Z,38.12
2023-07-24T08:14:41.116Z,38.17
2023-07-24T08:15:41.176Z,38.05
2023-07-24T08:16:41.120Z,37.88
2023-07-24T08:17:41.123Z,37.43
2023-07-24T08:18:41.027Z,37.15
2023-07-24T08:19:41.040Z,36.68
2023-07-24T08:20:41.022Z,36.30
2023-07-24T08:21:41.018Z,35.75
2023-07-24T08:22:41.027Z,35.08
2023-07-24T08:23:41.010Z,34.48
2023-07-24T08:33:41.179Z,31.87
2023-07-24T10:38:22.456Z,24.77
2023-07-24T11:14:42.296Z,33.74
2023-07-24T11:15:42.269Z,33.52
2023-07-24T11:16:44.081Z,33.33
2023-07-24T11:17:42.302Z,33.06
2023-07-24T11:18:53.178Z,32.77
2023-07-24T11:19:42.216Z,32.50
2023-07-24T11:20:42.223Z,32.31
2023-07-24T11:21:42.208Z,32.12
2023-07-24T11:22:42.205Z,31.97
2023-07-24T11:23:42.200Z,31.74
2023-07-24T11:24:42.253Z,31.48
2023-07-24T11:25:42.180Z,31.24
2023-07-24T11:26:43.195Z,30.89
2023-07-24T11:27:42.166Z,30.87
2023-07-24T11:28:42.164Z,30.77
2023-07-24T11:29:42.154Z,30.69
2023-07-24T11:30:42.156Z,30.81
2023-07-24T11:31:42.235Z,30.89
2023-07-24T11:32:42.238Z,31.02
2023-07-24T11:33:42.142Z,31.14
2023-07-24T11:34:42.123Z,31.03
2023-07-24T11:35:42.120Z,30.99
2023-07-24T11:36:42.110Z,31.11
2023-07-24T11:37:42.116Z,31.22
2023-07-24T11:38:42.101Z,31.29
2023-07-24T11:39:42.113Z,31.12
2023-07-24T11:40:42.089Z,31.09
2023-07-24T11:41:42.089Z,31.11
2023-07-24T11:42:42.074Z,31.02
2023-07-24T11:43:42.068Z,30.99
2023-07-24T11:44:42.063Z,30.96
2023-07-24T11:45:42.061Z,30.96
2023-07-24T11:46:42.085Z,31.00
2023-07-24T11:47:42.070Z,31.12
2023-07-24T11:48:42.036Z,31.25
2023-07-24T11:49:42.028Z,31.38
2023-07-24T11:50:42.024Z,31.58
2023-07-24T11:51:42.017Z,31.80
2023-07-24T11:52:42.018Z,32.24
2023-07-24T11:53:42.007Z,32.55
2023-07-24T11:54:41.998Z,32.86
2023-07-24T11:55:41.996Z,32.99
2023-07-24T11:56:42.001Z,33.04
2023-07-24T11:57:41.980Z,33.83
2023-07-24T11:58:41.975Z,34.45
2023-07-24T11:59:41.977Z,35.05
2023-07-24T12:00:41.957Z,35.82
2023-07-24T12:01:41.966Z,36.37
2023-07-24T12:02:42.032Z,36.48
2023-07-24T12:03:42.211Z,36.63
2023-07-24T12:04:41.939Z,36.80
2023-07-24T12:05:41.935Z,36.51
2023-07-24T12:06:41.941Z,36.30
2023-07-24T12:07:44.555Z,35.86
2023-07-24T12:08:41.925Z,35.57
2023-07-24T12:09:41.914Z,35.24
2023-07-24T12:10:41.910Z,34.86
2023-07-24T12:11:45.134Z,34.55
2023-07-24T12:12:41.912Z,34.22
2023-07-24T12:13:41.899Z,33.87
2023-07-24T12:14:41.893Z,33.58
2023-07-24T12:15:41.934Z,33.40
2023-07-24T12:16:41.893Z,33.58
2023-07-24T12:17:41.915Z,34.07
2023-07-24T12:18:41.877Z,34.63
2023-07-24T12:19:41.869Z,34.64
2023-07-24T12:20:41.867Z,34.48
2023-07-24T12:21:41.859Z,34.84
2023-07-24T12:22:41.873Z,35.90
2023-07-24T12:23:41.868Z,37.27
2023-07-24T12:24:41.860Z,38.54
2023-07-24T12:25:41.842Z,38.97
2023-07-24T12:26:41.834Z,38.31
2023-07-24T12:27:41.833Z,37.41
2023-07-24T12:28:41.828Z,36.71
2023-07-24T12:29:41.828Z,36.17
2023-07-24T12:30:41.877Z,36.19
2023-07-24T12:31:41.823Z,35.90
2023-07-24T12:32:41.886Z,35.49
2023-07-24T12:33:41.811Z,35.27
2023-07-24T12:34:41.810Z,35.90
2023-07-24T12:35:41.799Z,36.19
2023-07-24T12:36:41.820Z,35.95
2023-07-24T12:37:41.797Z,36.17
2023-07-24T12:38:41.785Z,36.63
2023-07-24T12:39:41.789Z,37.57
2023-07-24T12:40:41.781Z,37.87
2023-07-24T12:41:41.782Z,37.27
2023-07-24T12:42:41.803Z,37.88
2023-07-24T12:43:41.770Z,37.23
2023-07-24T12:44:41.768Z,36.86
2023-07-24T12:45:41.767Z,36.44
2023-07-24T12:46:41.850Z,37.23
2023-07-24T12:47:41.828Z,37.72
2023-07-24T12:48:41.751Z,38.29
2023-07-24T12:49:44.456Z,38.36
2023-07-24T13:23:49.884Z,34.26
2023-07-24T13:37:24.756Z,32.52
2023-07-24T14:10:19.151Z,27.42
2023-07-24T14:22:37.104Z,26.07
2023-07-24T14:37:38.044Z,24.88
2023-07-24T14:38:37.987Z,24.85
2023-07-24T14:40:42.481Z,24.70
2023-07-24T14:41:42.442Z,24.70
2023-07-24T14:42:42.464Z,24.65
2023-07-24T14:43:42.424Z,24.73
2023-07-24T14:44:42.426Z,24.76
2023-07-24T14:45:42.434Z,24.83
2023-07-24T14:46:42.395Z,25.00
2023-07-24T14:47:42.400Z,25.23
2023-07-24T14:48:42.376Z,25.45
2023-07-24T14:49:42.373Z,25.80
2023-07-24T14:50:42.371Z,26.34
2023-07-24T14:51:42.350Z,26.72
2023-07-24T14:52:42.348Z,27.12
2023-07-24T14:53:42.335Z,27.86
2023-07-24T14:54:42.328Z,28.27
2023-07-24T14:55:42.322Z,28.73
2023-07-24T14:56:53.837Z,29.17
2023-07-24T14:57:42.327Z,29.38
2023-07-24T14:58:42.303Z,29.57
2023-07-24T14:59:42.284Z,29.57
2023-07-24T15:00:42.701Z,29.47
2023-07-24T15:01:42.300Z,29.36
2023-07-24T15:02:42.295Z,29.44
2023-07-24T15:03:42.285Z,29.41
2023-07-24T15:04:42.244Z,29.38
2023-07-24T15:05:42.240Z,29.36
2023-07-24T15:06:42.249Z,29.51
2023-07-24T15:07:42.240Z,29.28
2023-07-24T15:08:42.221Z,29.10
2023-07-24T15:09:42.212Z,29.14
2023-07-24T15:10:42.205Z,29.17
2023-07-24T15:11:42.206Z,29.17
2023-07-24T15:12:42.186Z,29.05
2023-07-24T15:13:42.197Z,28.83
2023-07-24T15:14:42.179Z,28.61
2023-07-24T15:15:42.241Z,28.35
2023-07-24T15:16:42.162Z,28.34
2023-07-24T15:17:42.190Z,28.12
2023-07-24T15:18:42.140Z,28.17
2023-07-24T15:19:42.142Z,28.07
2023-07-24T15:20:42.129Z,28.20
2023-07-24T15:21:42.116Z,28.26
2023-07-24T15:22:42.178Z,28.27
2023-07-24T15:23:42.100Z,28.24
2023-07-24T15:24:42.147Z,28.22
2023-07-24T15:25:42.084Z,28.08
2023-07-24T15:26:42.079Z,27.83
2023-07-24T15:27:42.072Z,27.51
2023-07-24T15:28:42.065Z,27.23
2023-07-24T15:29:42.152Z,26.97
2023-07-24T15:30:42.044Z,26.96
2023-07-24T15:31:42.117Z,26.78
2023-07-24T15:32:42.035Z,26.67
2023-07-24T15:33:42.021Z,26.62
2023-07-24T15:34:42.021Z,26.44
2023-07-24T15:35:42.017Z,26.35
2023-07-24T15:36:42.013Z,26.20
2023-07-24T15:37:41.995Z,26.16
2023-07-24T15:38:41.985Z,26.02
2023-07-24T15:39:41.967Z,25.90
2023-07-24T15:40:41.972Z,25.81
2023-07-24T15:41:41.981Z,25.80
2023-07-24T15:42:41.955Z,25.66
2023-07-24T15:43:41.955Z,25.58
2023-07-24T15:44:41.939Z,25.53
2023-07-24T15:45:41.938Z,25.43
2023-07-24T15:46:42.057Z,25.26
2023-07-24T15:47:41.921Z,25.20
2023-07-24T15:48:41.904Z,25.13
2023-07-24T15:49:41.891Z,25.00
2023-07-24T15:50:41.889Z,24.98
2023-07-24T15:51:41.874Z,24.96
2023-07-24T15:52:41.865Z,24.88
2023-07-24T15:53:41.856Z,24.83
2023-07-24T15:54:41.855Z,24.82
2023-07-24T15:55:41.856Z,24.85
2023-07-24T15:56:41.835Z,24.93
2023-07-24T15:57:41.820Z,25.01
2023-07-24T15:58:41.809Z,25.23
2023-07-24T15:59:41.804Z,25.44
2023-07-24T16:00:41.796Z,25.62
2023-07-24T16:01:42.060Z,25.93
2023-07-24T16:02:41.888Z,26.19
2023-07-24T16:03:41.776Z,26.34
2023-07-24T16:04:41.759Z,26.50
2023-07-24T16:05:41.749Z,26.45
2023-07-24T16:06:41.734Z,26.43
2023-07-24T16:07:41.737Z,26.26
2023-07-24T16:08:41.722Z,26.26
2023-07-24T16:09:41.718Z,26.19
2023-07-24T16:10:41.702Z,26.19
2023-07-24T16:11:41.703Z,26.19
2023-07-24T16:12:41.685Z,26.15
2023-07-24T16:13:41.684Z,26.26
2023-07-24T16:14:41.676Z,26.10
2023-07-24T16:15:46.724Z,26.11
2023-07-24T16:16:41.651Z,26.30
2023-07-24T16:18:05.550Z,26.22
2023-07-24T16:18:41.678Z,26.34
2023-07-24T16:19:41.628Z,26.35
2023-07-24T16:20:41.634Z,26.45
2023-07-24T16:21:41.630Z,26.48
2023-07-24T16:22:41.604Z,26.53
2023-07-24T16:23:41.601Z,26.49
2023-07-24T16:24:41.612Z,26.50
2023-07-24T16:25:41.572Z,26.35
2023-07-24T16:26:41.581Z,26.18
2023-07-24T16:27:41.555Z,26.02
2023-07-24T16:28:41.549Z,25.81
2023-07-24T16:29:41.538Z,25.51
2023-07-24T16:30:42.608Z,25.33
2023-07-24T16:31:41.569Z,25.25
2023-07-24T16:32:49.384Z,25.35
2023-07-24T16:33:41.509Z,25.59
2023-07-24T16:34:41.495Z,25.59
2023-07-24T16:35:41.489Z,25.56
2023-07-24T16:36:41.538Z,25.55
2023-07-24T16:37:41.468Z,25.63
2023-07-24T16:38:41.460Z,25.69
2023-07-24T16:39:41.473Z,25.78
2023-07-24T16:40:41.446Z,25.88
2023-07-24T16:41:41.489Z,25.96
2023-07-24T16:42:41.442Z,25.95
2023-07-24T16:43:41.421Z,25.92
2023-07-24T16:44:41.419Z,25.88
2023-07-24T16:45:41.399Z,25.84
2023-07-24T16:46:41.415Z,25.80
2023-07-24T16:47:41.458Z,25.67
2023-07-24T16:48:41.396Z,25.60
2023-07-24T16:49:41.368Z,25.53
2023-07-24T16:50:41.395Z,25.40
2023-07-24T16:51:41.357Z,25.22
2023-07-24T16:52:41.342Z,25.13
2023-07-24T16:53:41.344Z,25.15
2023-07-24T16:54:41.326Z,25.13
2023-07-24T16:55:41.321Z,25.01
2023-07-24T16:56:41.302Z,24.95
2023-07-24T16:57:41.297Z,24.89
2023-07-24T16:58:41.291Z,24.76
2023-07-24T16:59:41.281Z,24.73
2023-07-24T17:00:41.306Z,24.69
2023-07-24T17:01:41.283Z,24.51
2023-07-24T17:02:41.267Z,24.48
2023-07-24T17:03:41.314Z,24.36
2023-07-24T17:04:41.236Z,24.36
2023-07-24T17:05:41.235Z,24.35
2023-07-24T17:06:41.214Z,24.30
2023-07-24T17:07:41.218Z,24.25
2023-07-24T17:08:41.195Z,24.25
2023-07-24T17:09:41.183Z,24.15
2023-07-24T17:10:41.179Z,24.17
2023-07-24T17:11:41.169Z,24.14
2023-07-24T17:12:41.165Z,24.17
2023-07-24T17:13:41.154Z,24.11
2023-07-24T17:14:41.140Z,24.13
2023-07-24T17:15:41.142Z,24.08
2023-07-24T17:16:41.149Z,23.98
2023-07-24T17:17:41.153Z,24.03
2023-07-24T17:18:41.119Z,23.98
2023-07-24T17:19:42.885Z,23.92
2023-07-24T17:20:41.091Z,23.89
2023-07-24T17:21:41.076Z,23.90
2023-07-24T17:22:41.063Z,23.92
2023-07-24T17:23:41.070Z,23.88
2023-07-24T17:24:41.096Z,23.90